Wetterdaten: aktuell Sonntag, 01.10.2023 11:20
Datum Zeit Temp. I. Temp. A. Temp. 2 Temp. 3 Temp. Wind Windchill X Feuchte I. Feuchte A. Feuchte 2 Feuchte 3 Luftdruck Regen Wind Richtung Richtung Taupunkt Windchill Windben
01.10.2023 11:20 20,7 C 21,3 C 18,7 C 19,2 C 24,0 C 24,0 C 62 % 65 % 71 % 32 % 1024,4 hPa 0,0 mm 4,6 km/h (1 Bft) W 270 14,4 C 21,3 C 0,0 km/h (0 Bft)
01.10.2023 11:15 20,8 C 20,8 C 18,7 C 19,3 C 23,7 C 23,7 C 62 % 64 % 71 % 32 % 1024,4 hPa 0,0 mm 5,7 km/h (1 Bft) W-SW 247 13,7 C 20,8 C 4,0 km/h (1 Bft)
01.10.2023 11:10 20,7 C 20,5 C 18,7 C 19,2 C 23,6 C 23,6 C 62 % 63 % 71 % 32 % 1024,5 hPa 0,0 mm 5,7 km/h (1 Bft) W 270 13,2 C 20,5 C 6,8 km/h (2 Bft)
01.10.2023 11:05 20,7 C 20,4 C 18,7 C 19,2 C 23,5 C 23,5 C 62 % 64 % 71 % 33 % 1024,5 hPa 0,0 mm 5,7 km/h (1 Bft) SO 135 13,4 C 20,4 C 11,9 km/h (2 Bft)
01.10.2023 11:00 20,8 C 20,2 C 18,7 C 19,2 C 23,5 C 23,5 C 61 % 63 % 71 % 32 % 1024,5 hPa 0,0 mm 4,6 km/h (1 Bft) S 180 12,9 C 20,2 C 3,9 km/h (1 Bft)
01.10.2023 10:55 20,8 C 20,4 C 18,7 C 19,2 C 23,4 C 23,4 C 61 % 63 % 71 % 32 % 1024,5 hPa 0,0 mm 3,4 km/h (1 Bft) S 180 13,1 C 20,4 C 5,1 km/h (1 Bft)
01.10.2023 10:50 20,8 C 19,9 C 18,7 C 19,2 C 22,6 C 22,6 C 61 % 65 % 71 % 32 % 1024,4 hPa 0,0 mm 4,6 km/h (1 Bft) S-SO 157 13,1 C 19,9 C 4,5 km/h (1 Bft)
01.10.2023 10:45 20,8 C 19,4 C 18,8 C 19,3 C 22,2 C 22,2 C 61 % 65 % 71 % 32 % 1024,4 hPa 0,0 mm 5,5 km/h (1 Bft) W 270 12,6 C 19,4 C 3,4 km/h (1 Bft)
01.10.2023 10:40 20,8 C 19,2 C 18,8 C 19,2 C 21,9 C 21,9 C 61 % 65 % 71 % 32 % 1024,4 hPa 0,0 mm 5,9 km/h (2 Bft) W-SW 247 12,5 C 19,2 C 3,5 km/h (1 Bft)
01.10.2023 10:35 20,8 C 19,0 C 18,8 C 19,3 C 21,7 C 21,7 C 61 % 64 % 71 % 32 % 1024,4 hPa 0,0 mm 5,7 km/h (1 Bft) SW 225 12,0 C 19,0 C 10,5 km/h (2 Bft)
01.10.2023 10:30 20,6 C 18,8 C 18,8 C 19,3 C 21,6 C 21,6 C 61 % 66 % 71 % 32 % 1024,4 hPa 0,0 mm 5,0 km/h (1 Bft) S-SO 157 12,3 C 18,8 C 4,7 km/h (1 Bft)
01.10.2023 10:25 20,5 C 18,6 C 18,8 C 19,3 C 21,4 C 21,4 C 61 % 65 % 71 % 32 % 1024,4 hPa 0,0 mm 4,6 km/h (1 Bft) W 270 11,9 C 18,6 C 3,1 km/h (1 Bft)
01.10.2023 10:20 20,6 C 18,4 C 18,8 C 19,3 C 21,1 C 21,1 C 60 % 67 % 71 % 32 % 1024,4 hPa 0,0 mm 4,1 km/h (1 Bft) W-SW 247 12,2 C 18,4 C 5,6 km/h (1 Bft)
01.10.2023 10:15 20,6 C 18,1 C 18,8 C 19,3 C 21,1 C 21,1 C 60 % 66 % 71 % 32 % 1024,4 hPa 0,0 mm 3,6 km/h (1 Bft) SW 225 11,6 C 18,1 C 7,7 km/h (2 Bft)
01.10.2023 10:10 20,7 C 18,0 C 18,8 C 19,3 C 20,9 C 20,9 C 61 % 69 % 71 % 32 % 1024,4 hPa 0,0 mm 2,7 km/h (1 Bft) W-NW 292 12,2 C 18,0 C 2,1 km/h (1 Bft)
01.10.2023 10:05 20,7 C 17,7 C 18,8 C 19,3 C 20,3 C 20,3 C 61 % 70 % 71 % 32 % 1024,4 hPa 0,0 mm 2,3 km/h (1 Bft) S 180 12,2 C 17,7 C 0,0 km/h (0 Bft)
01.10.2023 10:00 20,8 C 17,5 C 18,8 C 19,3 C 19,9 C 19,9 C 61 % 71 % 71 % 32 % 1024,4 hPa 0,0 mm 1,4 km/h (1 Bft) S 180 12,2 C 17,5 C 0,0 km/h (0 Bft)
01.10.2023 09:55 20,8 C 17,1 C 18,8 C 19,3 C 19,5 C 19,5 C 61 % 72 % 71 % 32 % 1024,4 hPa 0,0 mm 1,6 km/h (1 Bft) SW 225 12,0 C 17,1 C 2,1 km/h (1 Bft)
01.10.2023 09:50 20,8 C 16,5 C 18,8 C 19,3 C 18,8 C 18,8 C 61 % 73 % 71 % 32 % 1024,4 hPa 0,0 mm 1,6 km/h (1 Bft) S-SO 157 11,6 C 16,5 C 0,0 km/h (0 Bft)
01.10.2023 09:45 20,8 C 16,2 C 18,8 C 19,3 C 18,4 C 18,4 C 61 % 72 % 71 % 32 % 1024,4 hPa 0,0 mm 2,3 km/h (1 Bft) S-SO 157 11,1 C 16,2 C 3,1 km/h (1 Bft)
01.10.2023 09:40 20,8 C 16,3 C 18,8 C 19,3 C 17,8 C 17,8 C 61 % 85 % 71 % 32 % 1024,4 hPa 0,0 mm 1,8 km/h (1 Bft) SW 225 13,8 C 16,3 C 0,0 km/h (0 Bft)
01.10.2023 09:35 20,8 C 15,9 C 18,8 C 19,3 C 17,8 C 17,8 C 62 % 90 % 71 % 32 % 1024,4 hPa 0,0 mm 1,4 km/h (1 Bft) S-SO 157 14,3 C 15,9 C 7,1 km/h (2 Bft)
01.10.2023 09:30 20,8 C 15,2 C 18,8 C 19,3 C 17,3 C 17,3 C 62 % 90 % 71 % 32 % 1024,1 hPa 0,0 mm 0,0 km/h (0 Bft) S-SW 202 13,6 C 15,2 C 0,0 km/h (0 Bft)
01.10.2023 09:25 20,8 C 14,7 C 18,8 C 19,3 C 16,7 C 16,7 C 62 % 90 % 71 % 32 % 1024,1 hPa 0,0 mm 0,5 km/h (0 Bft) S-SO 157 13,1 C 14,7 C 3,1 km/h (1 Bft)
01.10.2023 09:20 20,7 C 13,7 C 18,8 C 19,3 C 16,0 C 16,0 C 62 % 90 % 71 % 32 % 1024,1 hPa 0,0 mm 0,5 km/h (0 Bft) S-SO 157 12,1 C 13,7 C 0,0 km/h (0 Bft)
01.10.2023 09:15 20,7 C 13,2 C 18,8 C 19,3 C 15,5 C 15,5 C 62 % 90 % 71 % 32 % 1024,1 hPa 0,0 mm 0,2 km/h (0 Bft) S-SO 157 11,6 C 13,2 C 0,0 km/h (0 Bft)
01.10.2023 09:10 20,6 C 12,4 C 18,9 C 19,4 C 14,7 C 14,7 C 62 % 90 % 71 % 32 % 1024,2 hPa 0,0 mm 0,0 km/h (0 Bft) SW 225 10,8 C 12,4 C 0,0 km/h (0 Bft)
01.10.2023 09:05 20,6 C 12,1 C 18,9 C 19,3 C 13,9 C 13,9 C 62 % 90 % 71 % 32 % 1024,2 hPa 0,0 mm 0,0 km/h (0 Bft) S 180 10,5 C 12,1 C 0,0 km/h (0 Bft)
01.10.2023 09:00 20,5 C 11,3 C 18,9 C 19,3 C 12,6 C 12,6 C 62 % 90 % 71 % 32 % 1024,2 hPa 0,0 mm 0,0 km/h (0 Bft) S 180 9,7 C 11,3 C 0,0 km/h (0 Bft)
01.10.2023 08:55 20,4 C 11,2 C 18,9 C 19,4 C 11,6 C 11,6 C 62 % 90 % 71 % 32 % 1024,2 hPa 0,0 mm 0,0 km/h (0 Bft) S-SO 157 9,6 C 11,2 C 0,0 km/h (0 Bft)
01.10.2023 08:50 20,4 C 10,9 C 18,9 C 19,4 C 10,7 C 10,3 C 61 % 90 % 71 % 32 % 1024,2 hPa 0,0 mm 0,0 km/h (0 Bft) S-SO 157 9,3 C 10,9 C 0,0 km/h (0 Bft)
01.10.2023 08:45 20,4 C 10,7 C 18,9 C 19,4 C 10,5 C 10,2 C 62 % 90 % 71 % 32 % 1024,2 hPa 0,0 mm 0,0 km/h (0 Bft) S 180 9,1 C 10,7 C 0,0 km/h (0 Bft)
01.10.2023 08:41 20,4 C 10,5 C 18,9 C 19,4 C 10,3 C 10,0 C 62 % 90 % 71 % 32 % 1024,2 hPa 0,0 mm 0,0 km/h (0 Bft) S 180 8,9 C 10,5 C 0,0 km/h (0 Bft)
01.10.2023 08:35 20,2 C 10,4 C 18,9 C 19,4 C 10,2 C 9,9 C 62 % 90 % 71 % 32 % 1024,2 hPa 0,0 mm 0,0 km/h (0 Bft) S 180 8,8 C 10,4 C 0,0 km/h (0 Bft)
01.10.2023 08:30 20,3 C 10,3 C 18,9 C 19,4 C 10,1 C 9,7 C 62 % 90 % 71 % 32 % 1024,2 hPa 0,0 mm 0,0 km/h (0 Bft) S 180 8,7 C 10,3 C 0,0 km/h (0 Bft)
01.10.2023 08:25 20,2 C 10,2 C 18,9 C 19,4 C 10,0 C 9,6 C 62 % 90 % 71 % 32 % 1024,2 hPa 0,0 mm 0,0 km/h (0 Bft) S-SW 202 8,6 C 10,2 C 0,0 km/h (0 Bft)
01.10.2023 08:20 20,2 C 10,1 C 18,9 C 19,4 C 9,9 C 9,5 C 61 % 90 % 71 % 32 % 1024,2 hPa 0,0 mm 0,0 km/h (0 Bft) S-SW 202 8,5 C 10,1 C 0,0 km/h (0 Bft)
01.10.2023 08:15 20,3 C 10,0 C 18,9 C 19,4 C 9,8 C 9,4 C 61 % 90 % 71 % 32 % 1024,2 hPa 0,0 mm 0,0 km/h (0 Bft) S-SW 202 8,4 C 10,0 C 0,0 km/h (0 Bft)
01.10.2023 08:10 20,3 C 10,0 C 18,9 C 19,4 C 9,8 C 9,4 C 61 % 90 % 71 % 32 % 1024,5 hPa 0,0 mm 0,0 km/h (0 Bft) S-SW 202 8,4 C 10,0 C 0,0 km/h (0 Bft)
01.10.2023 08:05 20,3 C 10,0 C 18,9 C 19,4 C 9,8 C 9,4 C 60 % 90 % 71 % 32 % 1024,5 hPa 0,0 mm 0,0 km/h (0 Bft) S-SW 202 8,4 C 10,0 C 0,0 km/h (0 Bft)
01.10.2023 08:00 20,5 C 10,0 C 18,9 C 19,5 C 9,8 C 9,4 C 58 % 90 % 71 % 32 % 1024,5 hPa 0,0 mm 0,0 km/h (0 Bft) S-SW 202 8,4 C 10,0 C 0,0 km/h (0 Bft)
01.10.2023 07:55 20,8 C 10,0 C 18,9 C 19,5 C 9,8 C 9,4 C 57 % 90 % 71 % 32 % 1024,5 hPa 0,0 mm 0,0 km/h (0 Bft) S 180 8,4 C 10,0 C 0,0 km/h (0 Bft)
01.10.2023 07:50 20,9 C 10,0 C 18,9 C 19,5 C 9,8 C 9,3 C 63 % 90 % 71 % 32 % 1024,5 hPa 0,0 mm 0,0 km/h (0 Bft) S 180 8,4 C 10,0 C 0,0 km/h (0 Bft)
01.10.2023 07:45 21,0 C 10,0 C 18,9 C 19,5 C 9,8 C 9,3 C 62 % 90 % 71 % 32 % 1024,5 hPa 0,0 mm 0,0 km/h (0 Bft) S-SW 202 8,4 C 10,0 C 0,0 km/h (0 Bft)
01.10.2023 07:40 21,0 C 10,0 C 18,9 C 19,5 C 9,8 C 9,3 C 63 % 90 % 71 % 32 % 1024,5 hPa 0,0 mm 0,0 km/h (0 Bft) S-SO 157 8,4 C 10,0 C 0,0 km/h (0 Bft)
01.10.2023 07:35 20,9 C 10,0 C 18,9 C 19,5 C 9,8 C 9,3 C 63 % 90 % 71 % 32 % 1024,5 hPa 0,0 mm 0,0 km/h (0 Bft) S-SO 157 8,4 C 10,0 C 0,0 km/h (0 Bft)
01.10.2023 07:30 20,9 C 9,9 C 18,9 C 19,5 C 9,7 C 9,3 C 63 % 82 % 71 % 32 % 1024,4 hPa 0,0 mm 0,0 km/h (0 Bft) S 180 7,0 C 9,9 C 0,0 km/h (0 Bft)
01.10.2023 07:25 20,9 C 9,8 C 18,9 C 19,5 C 9,6 C 9,1 C 63 % 82 % 71 % 32 % 1024,4 hPa 0,0 mm 0,0 km/h (0 Bft) S 180 6,9 C 9,8 C 0,0 km/h (0 Bft)
01.10.2023 07:20 21,0 C 9,8 C 18,9 C 19,5 C 9,6 C 9,1 C 63 % 82 % 71 % 32 % 1024,4 hPa 0,0 mm 0,0 km/h (0 Bft) S 180 6,9 C 9,8 C 0,0 km/h (0 Bft)
01.10.2023 07:15 21,0 C 9,7 C 18,9 C 19,5 C 9,5 C 9,0 C 63 % 82 % 71 % 32 % 1024,4 hPa 0,0 mm 0,0 km/h (0 Bft) S-SO 157 6,8 C 9,7 C 0,0 km/h (0 Bft)
01.10.2023 07:10 21,0 C 9,8 C 18,9 C 19,5 C 9,5 C 8,9 C 63 % 82 % 71 % 32 % 1024,3 hPa 0,0 mm 0,0 km/h (0 Bft) S-SO 157 6,9 C 9,8 C 0,0 km/h (0 Bft)
01.10.2023 07:05 21,0 C 9,8 C 18,9 C 19,5 C 9,5 C 9,0 C 63 % 82 % 71 % 32 % 1024,3 hPa 0,0 mm 0,0 km/h (0 Bft) S-SO 157 6,9 C 9,8 C 0,0 km/h (0 Bft)
01.10.2023 07:00 21,0 C 9,8 C 18,9 C 19,5 C 9,5 C 8,9 C 63 % 82 % 71 % 32 % 1024,3 hPa 0,0 mm 0,0 km/h (0 Bft) S-SO 157 6,9 C 9,8 C 0,0 km/h (0 Bft)
01.10.2023 06:55 21,0 C 9,9 C 18,9 C 19,5 C 9,6 C 9,0 C 63 % 82 % 71 % 32 % 1024,3 hPa 0,0 mm 0,0 km/h (0 Bft) S-SO 157 7,0 C 9,9 C 0,0 km/h (0 Bft)
01.10.2023 06:50 21,0 C 10,0 C 18,9 C 19,5 C 9,7 C 9,1 C 63 % 82 % 71 % 32 % 1024,4 hPa 0,0 mm 0,0 km/h (0 Bft) S-SO 157 7,1 C 10,0 C 0,0 km/h (0 Bft)
01.10.2023 06:45 21,0 C 10,0 C 18,9 C 19,5 C 9,7 C 9,1 C 63 % 82 % 71 % 32 % 1024,4 hPa 0,0 mm 0,0 km/h (0 Bft) S-SO 157 7,1 C 10,0 C 0,0 km/h (0 Bft)
01.10.2023 06:40 21,0 C 10,0 C 18,9 C 19,5 C 9,7 C 9,2 C 63 % 82 % 71 % 32 % 1024,4 hPa 0,0 mm 0,0 km/h (0 Bft) S-SO 157 7,1 C 10,0 C 0,0 km/h (0 Bft)
01.10.2023 06:35 21,0 C 10,0 C 18,9 C 19,5 C 9,7 C 9,2 C 63 % 82 % 71 % 31 % 1024,4 hPa 0,0 mm 0,0 km/h (0 Bft) S-SO 157 7,1 C 10,0 C 0,0 km/h (0 Bft)
01.10.2023 06:30 21,0 C 10,0 C 18,9 C 19,5 C 9,7 C 9,2 C 63 % 82 % 71 % 31 % 1024,6 hPa 0,0 mm 0,0 km/h (0 Bft) S-SO 157 7,1 C 10,0 C 0,0 km/h (0 Bft)
01.10.2023 06:25 21,0 C 10,1 C 18,9 C 19,5 C 9,8 C 9,3 C 63 % 82 % 71 % 32 % 1024,6 hPa 0,0 mm 0,0 km/h (0 Bft) S-SO 157 7,2 C 10,1 C 0,0 km/h (0 Bft)
01.10.2023 06:20 21,0 C 10,1 C 18,9 C 19,5 C 9,8 C 9,3 C 63 % 82 % 71 % 31 % 1024,6 hPa 0,0 mm 0,0 km/h (0 Bft) S-SO 157 7,2 C 10,1 C 0,0 km/h (0 Bft)
01.10.2023 06:15 21,0 C 10,1 C 18,9 C 19,5 C 9,8 C 9,3 C 63 % 90 % 71 % 31 % 1024,6 hPa 0,0 mm 0,0 km/h (0 Bft) S-SO 157 8,5 C 10,1 C 0,0 km/h (0 Bft)
01.10.2023 06:10 21,0 C 10,3 C 18,9 C 19,5 C 10,1 C 9,6 C 63 % 90 % 71 % 31 % 1024,4 hPa 0,0 mm 0,0 km/h (0 Bft) S-SO 157 8,7 C 10,3 C 0,0 km/h (0 Bft)
01.10.2023 06:05 21,0 C 10,3 C 18,9 C 19,5 C 10,1 C 9,6 C 63 % 90 % 71 % 31 % 1024,4 hPa 0,0 mm 0,0 km/h (0 Bft) S-SO 157 8,7 C 10,3 C 0,0 km/h (0 Bft)
01.10.2023 06:00 21,0 C 10,3 C 18,9 C 19,5 C 10,1 C 9,6 C 63 % 90 % 71 % 31 % 1024,4 hPa 0,0 mm 0,0 km/h (0 Bft) SO 135 8,7 C 10,3 C 0,0 km/h (0 Bft)
01.10.2023 05:55 21,0 C 10,3 C 18,9 C 19,5 C 10,1 C 9,6 C 63 % 90 % 71 % 31 % 1024,4 hPa 0,0 mm 0,0 km/h (0 Bft) S-SO 157 8,7 C 10,3 C 0,0 km/h (0 Bft)
01.10.2023 05:50 21,0 C 10,3 C 18,9 C 19,5 C 10,1 C 9,6 C 63 % 90 % 71 % 31 % 1023,9 hPa 0,0 mm 0,0 km/h (0 Bft) S-SO 157 8,7 C 10,3 C 0,0 km/h (0 Bft)
01.10.2023 05:45 21,0 C 10,4 C 18,9 C 19,5 C 10,1 C 9,6 C 63 % 90 % 71 % 31 % 1023,9 hPa 0,0 mm 0,0 km/h (0 Bft) S-SO 157 8,8 C 10,4 C 0,0 km/h (0 Bft)
01.10.2023 05:40 21,0 C 10,4 C 18,9 C 19,5 C 10,1 C 9,6 C 63 % 90 % 71 % 31 % 1023,9 hPa 0,0 mm 0,0 km/h (0 Bft) S-SO 157 8,8 C 10,4 C 0,0 km/h (0 Bft)
01.10.2023 05:35 21,0 C 10,5 C 18,9 C 19,5 C 10,2 C 9,7 C 63 % 90 % 71 % 31 % 1023,9 hPa 0,0 mm 0,0 km/h (0 Bft) S 180 8,9 C 10,5 C 0,0 km/h (0 Bft)
01.10.2023 05:30 21,0 C 10,5 C 18,9 C 19,5 C 10,3 C 9,8 C 63 % 90 % 71 % 31 % 1024,5 hPa 0,0 mm 0,0 km/h (0 Bft) S-SO 157 8,9 C 10,5 C 0,0 km/h (0 Bft)
01.10.2023 05:25 21,0 C 10,5 C 18,9 C 19,5 C 10,2 C 9,7 C 63 % 90 % 71 % 31 % 1024,5 hPa 0,0 mm 0,0 km/h (0 Bft) S-SO 157 8,9 C 10,5 C 0,0 km/h (0 Bft)
01.10.2023 05:20 21,0 C 10,4 C 18,9 C 19,5 C 10,1 C 9,6 C 63 % 90 % 71 % 31 % 1024,5 hPa 0,0 mm 0,0 km/h (0 Bft) S 180 8,8 C 10,4 C 0,0 km/h (0 Bft)
01.10.2023 05:15 21,1 C 10,4 C 18,9 C 19,5 C 10,1 C 9,6 C 63 % 90 % 71 % 31 % 1024,5 hPa 0,0 mm 0,0 km/h (0 Bft) S 180 8,8 C 10,4 C 0,0 km/h (0 Bft)
01.10.2023 05:10 21,0 C 10,4 C 18,9 C 19,5 C 10,1 C 9,6 C 63 % 90 % 71 % 31 % 1024,4 hPa 0,0 mm 0,0 km/h (0 Bft) S-SO 157 8,8 C 10,4 C 0,0 km/h (0 Bft)
01.10.2023 05:05 21,0 C 10,4 C 18,9 C 19,5 C 10,1 C 9,6 C 63 % 90 % 71 % 31 % 1024,4 hPa 0,0 mm 0,0 km/h (0 Bft) S-SO 157 8,8 C 10,4 C 0,0 km/h (0 Bft)
01.10.2023 05:00 21,1 C 10,6 C 18,9 C 19,5 C 10,3 C 9,8 C 63 % 90 % 71 % 31 % 1024,4 hPa 0,0 mm 0,0 km/h (0 Bft) SO 135 9,0 C 10,6 C 0,0 km/h (0 Bft)
01.10.2023 04:55 21,1 C 10,6 C 18,9 C 19,5 C 10,3 C 9,8 C 63 % 90 % 71 % 31 % 1024,4 hPa 0,0 mm 0,0 km/h (0 Bft) SO 135 9,0 C 10,6 C 0,0 km/h (0 Bft)
01.10.2023 04:50 21,1 C 10,6 C 18,9 C 19,5 C 10,3 C 9,8 C 63 % 90 % 71 % 31 % 1024,5 hPa 0,0 mm 0,0 km/h (0 Bft) S-SO 157 9,0 C 10,6 C 0,0 km/h (0 Bft)
01.10.2023 04:45 21,1 C 10,6 C 18,9 C 19,5 C 10,4 C 9,9 C 63 % 90 % 71 % 31 % 1024,5 hPa 0,0 mm 0,0 km/h (0 Bft) S-SO 157 9,0 C 10,6 C 0,0 km/h (0 Bft)
01.10.2023 04:40 21,1 C 10,6 C 18,9 C 19,5 C 10,4 C 9,9 C 63 % 90 % 71 % 31 % 1024,5 hPa 0,0 mm 0,0 km/h (0 Bft) S-SO 157 9,0 C 10,6 C 0,0 km/h (0 Bft)
01.10.2023 04:35 21,1 C 10,6 C 18,9 C 19,5 C 10,4 C 9,9 C 63 % 90 % 71 % 31 % 1024,5 hPa 0,0 mm 0,0 km/h (0 Bft) S-SO 157 9,0 C 10,6 C 0,0 km/h (0 Bft)
01.10.2023 04:30 21,1 C 10,5 C 18,9 C 19,5 C 10,3 C 9,8 C 63 % 90 % 71 % 31 % 1024,6 hPa 0,0 mm 0,0 km/h (0 Bft) S-SO 157 8,9 C 10,5 C 0,0 km/h (0 Bft)
01.10.2023 04:25 21,1 C 10,6 C 18,9 C 19,5 C 10,4 C 9,9 C 63 % 90 % 71 % 31 % 1024,6 hPa 0,0 mm 0,0 km/h (0 Bft) S-SO 157 9,0 C 10,6 C 0,0 km/h (0 Bft)
01.10.2023 04:20 21,1 C 10,5 C 18,9 C 19,5 C 10,3 C 9,9 C 63 % 90 % 71 % 31 % 1024,6 hPa 0,0 mm 0,0 km/h (0 Bft) S-SO 157 8,9 C 10,5 C 0,0 km/h (0 Bft)
01.10.2023 04:15 21,1 C 10,6 C 18,9 C 19,5 C 10,4 C 9,9 C 63 % 90 % 71 % 31 % 1024,6 hPa 0,0 mm 0,0 km/h (0 Bft) S-SW 202 9,0 C 10,6 C 0,0 km/h (0 Bft)
01.10.2023 04:10 21,1 C 10,5 C 18,9 C 19,5 C 10,3 C 10,0 C 63 % 90 % 71 % 31 % 1024,6 hPa 0,0 mm 0,0 km/h (0 Bft) S 180 8,9 C 10,5 C 0,0 km/h (0 Bft)
01.10.2023 04:05 21,1 C 10,5 C 18,9 C 19,5 C 10,3 C 10,0 C 63 % 90 % 71 % 31 % 1024,6 hPa 0,0 mm 0,2 km/h (0 Bft) S-SO 157 8,9 C 10,5 C 0,0 km/h (0 Bft)
01.10.2023 04:00 21,1 C 10,4 C 18,9 C 19,5 C 10,2 C 9,9 C 63 % 90 % 71 % 31 % 1024,6 hPa 0,0 mm 0,2 km/h (0 Bft) S 180 8,8 C 10,4 C 0,0 km/h (0 Bft)
01.10.2023 03:55 21,1 C 10,4 C 18,8 C 19,5 C 10,2 C 9,8 C 63 % 90 % 71 % 31 % 1024,6 hPa 0,0 mm 0,2 km/h (0 Bft) S-SO 157 8,8 C 10,4 C 2,9 km/h (1 Bft)
01.10.2023 03:51 21,1 C 10,3 C 18,9 C 19,5 C 10,1 C 9,8 C 63 % 90 % 71 % 31 % 1024,9 hPa 0,0 mm 0,2 km/h (0 Bft) S-SO 157 8,7 C 10,3 C 0,0 km/h (0 Bft)
01.10.2023 03:45 21,1 C 10,1 C 18,9 C 19,4 C 9,9 C 9,6 C 63 % 90 % 71 % 31 % 1024,9 hPa 0,0 mm 0,0 km/h (0 Bft) S 180 8,5 C 10,1 C 0,0 km/h (0 Bft)
01.10.2023 03:40 21,1 C 10,0 C 18,8 C 19,4 C 9,9 C 9,6 C 63 % 90 % 71 % 31 % 1024,9 hPa 0,0 mm 0,0 km/h (0 Bft) S 180 8,4 C 10,0 C 0,0 km/h (0 Bft)
01.10.2023 03:36 21,1 C 10,0 C 18,9 C 19,4 C 9,8 C 9,4 C 63 % 90 % 71 % 31 % 1024,9 hPa 0,0 mm 0,0 km/h (0 Bft) S-SO 157 8,4 C 10,0 C 0,0 km/h (0 Bft)
01.10.2023 03:30 21,1 C 9,8 C 18,9 C 19,5 C 9,6 C 9,2 C 63 % 90 % 71 % 31 % 1025,1 hPa 0,0 mm 0,0 km/h (0 Bft) S-SW 202 8,2 C 9,8 C 0,0 km/h (0 Bft)
01.10.2023 03:25 21,1 C 9,7 C 18,9 C 19,5 C 9,5 C 9,1 C 63 % 90 % 71 % 31 % 1025,1 hPa 0,0 mm 0,0 km/h (0 Bft) S-SO 157 8,1 C 9,7 C 0,0 km/h (0 Bft)
01.10.2023 03:20 21,1 C 9,5 C 18,9 C 19,4 C 9,3 C 9,0 C 63 % 82 % 71 % 31 % 1025,1 hPa 0,0 mm 0,0 km/h (0 Bft) S-SO 157 6,6 C 9,5 C 0,0 km/h (0 Bft)
01.10.2023 03:15 21,2 C 9,5 C 18,9 C 19,4 C 9,3 C 8,8 C 63 % 89 % 71 % 31 % 1025,1 hPa 0,0 mm 0,0 km/h (0 Bft) S-SO 157 7,8 C 9,5 C 0,0 km/h (0 Bft)
01.10.2023 03:10 21,2 C 9,4 C 18,8 C 19,4 C 9,2 C 8,7 C 63 % 82 % 71 % 31 % 1025,2 hPa 0,0 mm 0,0 km/h (0 Bft) S-SO 157 6,5 C 9,4 C 0,0 km/h (0 Bft)
01.10.2023 03:05 21,2 C 9,4 C 18,8 C 19,4 C 9,2 C 8,7 C 63 % 82 % 71 % 31 % 1025,2 hPa 0,0 mm 0,0 km/h (0 Bft) S-SO 157 6,5 C 9,4 C 0,0 km/h (0 Bft)
01.10.2023 03:00 21,2 C 9,5 C 18,8 C 19,5 C 9,2 C 8,6 C 63 % 89 % 71 % 31 % 1025,2 hPa 0,0 mm 0,0 km/h (0 Bft) S 180 7,8 C 9,5 C 0,0 km/h (0 Bft)
01.10.2023 02:55 21,2 C 9,5 C 18,8 C 19,4 C 9,2 C 8,7 C 63 % 82 % 71 % 31 % 1025,2 hPa 0,0 mm 0,0 km/h (0 Bft) S 180 6,6 C 9,5 C 0,0 km/h (0 Bft)
01.10.2023 02:50 21,2 C 9,5 C 18,8 C 19,4 C 9,3 C 8,8 C 63 % 82 % 71 % 31 % 1025,3 hPa 0,0 mm 0,0 km/h (0 Bft) S 180 6,6 C 9,5 C 0,0 km/h (0 Bft)
01.10.2023 02:45 21,2 C 9,5 C 18,8 C 19,5 C 9,2 C 8,6 C 63 % 82 % 71 % 31 % 1025,3 hPa 0,0 mm 0,0 km/h (0 Bft) S 180 6,6 C 9,5 C 0,0 km/h (0 Bft)
01.10.2023 02:40 21,2 C 9,5 C 18,8 C 19,4 C 9,2 C 8,7 C 63 % 82 % 71 % 31 % 1025,3 hPa 0,0 mm 0,0 km/h (0 Bft) S 180 6,6 C 9,5 C 0,0 km/h (0 Bft)
01.10.2023 02:35 21,2 C 9,6 C 18,8 C 19,4 C 9,3 C 8,8 C 63 % 82 % 71 % 31 % 1025,3 hPa 0,0 mm 0,0 km/h (0 Bft) S 180 6,7 C 9,6 C 0,0 km/h (0 Bft)
01.10.2023 02:30 21,2 C 9,7 C 18,8 C 19,4 C 9,4 C 8,8 C 63 % 82 % 71 % 31 % 1025,4 hPa 0,0 mm 0,0 km/h (0 Bft) S 180 6,8 C 9,7 C 0,0 km/h (0 Bft)
01.10.2023 02:25 21,2 C 9,7 C 18,8 C 19,5 C 9,4 C 8,9 C 63 % 82 % 71 % 31 % 1025,4 hPa 0,0 mm 0,0 km/h (0 Bft) S 180 6,8 C 9,7 C 0,0 km/h (0 Bft)
01.10.2023 02:20 21,2 C 9,7 C 18,8 C 19,4 C 9,4 C 8,9 C 63 % 82 % 71 % 31 % 1025,4 hPa 0,0 mm 0,0 km/h (0 Bft) S 180 6,8 C 9,7 C 0,0 km/h (0 Bft)
01.10.2023 02:15 21,2 C 9,6 C 18,8 C 19,5 C 9,4 C 8,9 C 63 % 82 % 71 % 31 % 1025,4 hPa 0,0 mm 0,0 km/h (0 Bft) S 180 6,7 C 9,6 C 0,0 km/h (0 Bft)
01.10.2023 02:10 21,2 C 9,6 C 18,8 C 19,4 C 9,4 C 8,9 C 63 % 81 % 71 % 31 % 1025,5 hPa 0,0 mm 0,0 km/h (0 Bft) S 180 6,5 C 9,6 C 0,0 km/h (0 Bft)
01.10.2023 02:05 21,2 C 9,6 C 18,8 C 19,4 C 9,4 C 8,9 C 63 % 82 % 71 % 31 % 1025,5 hPa 0,0 mm 0,0 km/h (0 Bft) S 180 6,7 C 9,6 C 0,0 km/h (0 Bft)
01.10.2023 02:00 21,3 C 9,5 C 18,8 C 19,4 C 9,3 C 8,8 C 63 % 81 % 71 % 31 % 1025,5 hPa 0,0 mm 0,0 km/h (0 Bft) S 180 6,4 C 9,5 C 0,0 km/h (0 Bft)
01.10.2023 01:55 21,2 C 9,5 C 18,8 C 19,4 C 9,2 C 8,7 C 63 % 81 % 71 % 31 % 1025,5 hPa 0,0 mm 0,0 km/h (0 Bft) S 180 6,4 C 9,5 C 0,0 km/h (0 Bft)
01.10.2023 01:50 21,2 C 9,5 C 18,8 C 19,4 C 9,2 C 8,6 C 63 % 81 % 71 % 31 % 1025,7 hPa 0,0 mm 0,0 km/h (0 Bft) S 180 6,4 C 9,5 C 0,0 km/h (0 Bft)
01.10.2023 01:45 21,3 C 9,5 C 18,8 C 19,4 C 9,2 C 8,6 C 63 % 81 % 71 % 31 % 1025,7 hPa 0,0 mm 0,0 km/h (0 Bft) S 180 6,4 C 9,5 C 0,0 km/h (0 Bft)
01.10.2023 01:40 21,2 C 9,7 C 18,8 C 19,4 C 9,3 C 8,6 C 63 % 81 % 71 % 31 % 1025,7 hPa 0,0 mm 0,0 km/h (0 Bft) S 180 6,6 C 9,7 C 0,0 km/h (0 Bft)
01.10.2023 01:35 21,2 C 9,7 C 18,8 C 19,4 C 9,4 C 8,7 C 63 % 81 % 71 % 31 % 1025,7 hPa 0,0 mm 0,0 km/h (0 Bft) S 180 6,6 C 9,7 C 0,0 km/h (0 Bft)
01.10.2023 01:30 21,2 C 9,7 C 18,8 C 19,4 C 9,4 C 8,8 C 63 % 81 % 71 % 31 % 1025,7 hPa 0,0 mm 0,0 km/h (0 Bft) S 180 6,6 C 9,7 C 0,0 km/h (0 Bft)
01.10.2023 01:25 21,2 C 9,7 C 18,8 C 19,4 C 9,4 C 8,8 C 63 % 81 % 71 % 31 % 1025,7 hPa 0,0 mm 0,0 km/h (0 Bft) S 180 6,6 C 9,7 C 0,0 km/h (0 Bft)
01.10.2023 01:20 21,2 C 9,7 C 18,8 C 19,4 C 9,4 C 8,7 C 63 % 81 % 71 % 31 % 1025,7 hPa 0,0 mm 0,0 km/h (0 Bft) S 180 6,6 C 9,7 C 0,0 km/h (0 Bft)
01.10.2023 01:15 21,4 C 9,7 C 18,8 C 19,4 C 9,4 C 8,7 C 63 % 81 % 71 % 31 % 1025,7 hPa 0,0 mm 0,0 km/h (0 Bft) S 180 6,6 C 9,7 C 0,0 km/h (0 Bft)
01.10.2023 01:10 21,4 C 9,8 C 18,8 C 19,4 C 9,4 C 8,7 C 63 % 81 % 71 % 31 % 1025,8 hPa 0,0 mm 0,0 km/h (0 Bft) S 180 6,7 C 9,8 C 0,0 km/h (0 Bft)
01.10.2023 01:05 21,4 C 9,9 C 18,7 C 19,4 C 9,5 C 8,8 C 63 % 81 % 71 % 31 % 1025,8 hPa 0,0 mm 0,0 km/h (0 Bft) S 180 6,8 C 9,9 C 0,0 km/h (0 Bft)
01.10.2023 01:00 21,4 C 10,0 C 18,7 C 19,4 C 9,6 C 8,9 C 63 % 81 % 71 % 31 % 1025,8 hPa 0,0 mm 0,0 km/h (0 Bft) S 180 6,9 C 10,0 C 0,0 km/h (0 Bft)
01.10.2023 00:55 21,4 C 10,0 C 18,8 C 19,4 C 9,7 C 9,0 C 63 % 81 % 71 % 31 % 1025,8 hPa 0,0 mm 0,0 km/h (0 Bft) S 180 6,9 C 10,0 C 0,0 km/h (0 Bft)
01.10.2023 00:50 21,4 C 10,0 C 18,8 C 19,4 C 9,7 C 9,2 C 63 % 81 % 71 % 31 % 1025,9 hPa 0,0 mm 0,0 km/h (0 Bft) S 180 6,9 C 10,0 C 0,0 km/h (0 Bft)
01.10.2023 00:45 21,4 C 10,0 C 18,8 C 19,4 C 9,7 C 9,2 C 63 % 81 % 71 % 31 % 1025,9 hPa 0,0 mm 0,0 km/h (0 Bft) S-SW 202 6,9 C 10,0 C 0,0 km/h (0 Bft)
01.10.2023 00:40 21,4 C 10,0 C 18,8 C 19,4 C 9,7 C 9,1 C 63 % 81 % 71 % 31 % 1025,9 hPa 0,0 mm 0,0 km/h (0 Bft) S 180 6,9 C 10,0 C 0,0 km/h (0 Bft)
01.10.2023 00:35 21,4 C 10,0 C 18,7 C 19,3 C 9,7 C 9,1 C 63 % 81 % 71 % 31 % 1025,9 hPa 0,0 mm 0,0 km/h (0 Bft) S 180 6,9 C 10,0 C 0,0 km/h (0 Bft)
01.10.2023 00:30 21,4 C 10,0 C 18,7 C 19,4 C 9,7 C 9,1 C 63 % 81 % 71 % 31 % 1026,1 hPa 0,0 mm 0,0 km/h (0 Bft) S 180 6,9 C 10,0 C 0,0 km/h (0 Bft)
01.10.2023 00:25 21,4 C 10,0 C 18,7 C 19,3 C 9,7 C 9,1 C 63 % 80 % 71 % 31 % 1026,1 hPa 0,0 mm 0,0 km/h (0 Bft) S 180 6,7 C 10,0 C 0,0 km/h (0 Bft)
01.10.2023 00:20 21,5 C 10,0 C 18,7 C 19,3 C 9,7 C 9,1 C 63 % 80 % 71 % 31 % 1026,1 hPa 0,0 mm 0,0 km/h (0 Bft) S 180 6,7 C 10,0 C 0,0 km/h (0 Bft)
01.10.2023 00:15 21,5 C 10,1 C 18,7 C 19,3 C 9,8 C 9,1 C 63 % 81 % 71 % 31 % 1026,1 hPa 0,0 mm 0,0 km/h (0 Bft) S 180 7,0 C 10,1 C 0,0 km/h (0 Bft)
01.10.2023 00:10 21,5 C 10,2 C 18,7 C 19,3 C 9,9 C 9,2 C 63 % 80 % 71 % 31 % 1026,0 hPa 0,0 mm 0,0 km/h (0 Bft) S 180 6,9 C 10,2 C 0,0 km/h (0 Bft)
01.10.2023 00:05 21,5 C 10,2 C 18,7 C 19,3 C 9,9 C 9,2 C 63 % 80 % 71 % 31 % 1026,0 hPa 0,0 mm 0,0 km/h (0 Bft) S 180 6,9 C 10,2 C 0,0 km/h (0 Bft)
01.10.2023 00:00 21,6 C 10,2 C 18,7 C 19,3 C 9,8 C 9,1 C 63 % 80 % 71 % 31 % 1026,0 hPa 0,0 mm 0,0 km/h (0 Bft) S 180 6,9 C 10,2 C 0,0 km/h (0 Bft)
30.09.2023 23:55 21,6 C 10,2 C 18,7 C 19,3 C 9,8 C 9,1 C 63 % 80 % 71 % 31 % 1026,0 hPa 0,0 mm 0,0 km/h (0 Bft) S 180 6,9 C 10,2 C 0,0 km/h (0 Bft)
30.09.2023 23:50 21,6 C 10,4 C 18,7 C 19,3 C 10,0 C 9,3 C 63 % 80 % 71 % 31 % 1026,2 hPa 0,0 mm 0,0 km/h (0 Bft) S 180 7,1 C 10,4 C 0,0 km/h (0 Bft)
30.09.2023 23:45 21,6 C 10,4 C 18,7 C 19,3 C 10,1 C 9,4 C 63 % 80 % 71 % 31 % 1026,2 hPa 0,0 mm 0,0 km/h (0 Bft) S 180 7,1 C 10,4 C 0,0 km/h (0 Bft)
30.09.2023 23:41 21,6 C 10,5 C 18,7 C 19,3 C 10,2 C 9,6 C 62 % 80 % 71 % 31 % 1026,2 hPa 0,0 mm 0,0 km/h (0 Bft) S 180 7,2 C 10,5 C 0,0 km/h (0 Bft)
30.09.2023 23:35 21,6 C 10,5 C 18,7 C 19,3 C 10,2 C 9,6 C 63 % 80 % 71 % 31 % 1026,2 hPa 0,0 mm 0,0 km/h (0 Bft) S 180 7,2 C 10,5 C 0,0 km/h (0 Bft)
30.09.2023 23:30 21,6 C 10,4 C 18,7 C 19,3 C 10,1 C 9,4 C 63 % 80 % 71 % 31 % 1026,3 hPa 0,0 mm 0,0 km/h (0 Bft) S 180 7,1 C 10,4 C 0,0 km/h (0 Bft)
30.09.2023 23:25 21,6 C 10,5 C 18,7 C 19,3 C 10,1 C 9,4 C 62 % 80 % 71 % 31 % 1026,3 hPa 0,0 mm 0,0 km/h (0 Bft) S 180 7,2 C 10,5 C 0,0 km/h (0 Bft)
30.09.2023 23:20 21,7 C 10,7 C 18,7 C 19,3 C 10,3 C 9,5 C 63 % 80 % 71 % 31 % 1026,3 hPa 0,0 mm 0,0 km/h (0 Bft) S 180 7,4 C 10,7 C 0,0 km/h (0 Bft)
30.09.2023 23:15 21,7 C 10,8 C 18,7 C 19,3 C 10,4 C 9,6 C 62 % 81 % 71 % 31 % 1026,3 hPa 0,0 mm 0,0 km/h (0 Bft) S 180 7,7 C 10,8 C 0,0 km/h (0 Bft)
30.09.2023 23:10 21,7 C 10,9 C 18,7 C 19,3 C 10,5 C 9,7 C 62 % 80 % 71 % 31 % 1026,1 hPa 0,0 mm 0,0 km/h (0 Bft) S 180 7,6 C 10,9 C 0,0 km/h (0 Bft)
30.09.2023 23:05 21,7 C 11,0 C 18,7 C 19,3 C 10,6 C 9,8 C 62 % 80 % 71 % 31 % 1026,1 hPa 0,0 mm 0,0 km/h (0 Bft) S 180 7,7 C 11,0 C 0,0 km/h (0 Bft)
30.09.2023 23:00 21,8 C 11,0 C 18,7 C 19,3 C 10,6 C 9,9 C 62 % 80 % 71 % 31 % 1026,1 hPa 0,0 mm 0,0 km/h (0 Bft) S 180 7,7 C 11,0 C 0,0 km/h (0 Bft)
30.09.2023 22:55 21,8 C 11,1 C 18,7 C 19,3 C 10,7 C 9,9 C 62 % 80 % 71 % 31 % 1026,1 hPa 0,0 mm 0,0 km/h (0 Bft) S 180 7,8 C 11,1 C 0,0 km/h (0 Bft)
30.09.2023 22:50 21,8 C 11,2 C 18,7 C 19,3 C 10,8 C 10,0 C 63 % 80 % 71 % 31 % 1026,2 hPa 0,0 mm 0,0 km/h (0 Bft) S 180 7,9 C 11,2 C 0,0 km/h (0 Bft)
30.09.2023 22:45 21,8 C 11,2 C 18,7 C 19,3 C 10,8 C 10,0 C 63 % 80 % 71 % 31 % 1026,2 hPa 0,0 mm 0,0 km/h (0 Bft) S 180 7,9 C 11,2 C 0,0 km/h (0 Bft)
30.09.2023 22:40 21,8 C 11,3 C 18,7 C 19,3 C 10,9 C 10,2 C 63 % 80 % 71 % 31 % 1026,2 hPa 0,0 mm 0,0 km/h (0 Bft) S 180 8,0 C 11,3 C 0,0 km/h (0 Bft)
30.09.2023 22:35 21,8 C 11,5 C 18,7 C 19,3 C 11,1 C 10,3 C 63 % 80 % 71 % 31 % 1026,2 hPa 0,0 mm 0,0 km/h (0 Bft) S 180 8,2 C 11,5 C 0,0 km/h (0 Bft)
30.09.2023 22:30 21,8 C 11,5 C 18,7 C 19,3 C 11,1 C 10,4 C 63 % 80 % 71 % 31 % 1026,2 hPa 0,0 mm 0,0 km/h (0 Bft) S 180 8,2 C 11,5 C 0,0 km/h (0 Bft)
30.09.2023 22:25 21,9 C 11,6 C 18,7 C 19,2 C 11,2 C 10,5 C 63 % 80 % 71 % 31 % 1026,2 hPa 0,0 mm 0,0 km/h (0 Bft) S 180 8,3 C 11,6 C 0,0 km/h (0 Bft)
30.09.2023 22:20 21,9 C 11,7 C 18,7 C 19,3 C 11,4 C 10,7 C 63 % 80 % 71 % 31 % 1026,2 hPa 0,0 mm 0,0 km/h (0 Bft) S 180 8,4 C 11,7 C 0,0 km/h (0 Bft)
30.09.2023 22:15 21,8 C 11,7 C 18,6 C 19,2 C 11,4 C 10,8 C 63 % 80 % 71 % 31 % 1026,2 hPa 0,0 mm 0,0 km/h (0 Bft) S 180 8,4 C 11,7 C 0,0 km/h (0 Bft)
30.09.2023 22:10 21,8 C 11,9 C 18,6 C 19,2 C 11,6 C 11,0 C 63 % 80 % 71 % 31 % 1026,2 hPa 0,0 mm 0,0 km/h (0 Bft) S 180 8,6 C 11,9 C 0,0 km/h (0 Bft)
30.09.2023 22:05 21,9 C 12,0 C 18,6 C 19,2 C 11,7 C 11,0 C 63 % 80 % 71 % 31 % 1026,2 hPa 0,0 mm 0,0 km/h (0 Bft) S 180 8,7 C 12,0 C 0,0 km/h (0 Bft)
30.09.2023 22:00 21,9 C 12,0 C 18,6 C 19,2 C 11,7 C 11,2 C 63 % 80 % 71 % 31 % 1026,2 hPa 0,0 mm 0,0 km/h (0 Bft) S 180 8,7 C 12,0 C 0,0 km/h (0 Bft)
30.09.2023 21:55 21,9 C 12,0 C 18,6 C 19,2 C 11,7 C 11,2 C 63 % 80 % 71 % 31 % 1026,2 hPa 0,0 mm 0,0 km/h (0 Bft) S 180 8,7 C 12,0 C 0,0 km/h (0 Bft)
30.09.2023 21:50 21,9 C 12,0 C 18,6 C 19,2 C 11,7 C 11,2 C 63 % 79 % 71 % 31 % 1026,2 hPa 0,0 mm 0,0 km/h (0 Bft) S 180 8,5 C 12,0 C 0,0 km/h (0 Bft)
30.09.2023 21:45 21,9 C 12,0 C 18,6 C 19,2 C 11,8 C 11,3 C 63 % 79 % 71 % 31 % 1026,2 hPa 0,0 mm 0,0 km/h (0 Bft) S 180 8,5 C 12,0 C 0,0 km/h (0 Bft)
30.09.2023 21:40 21,9 C 12,0 C 18,6 C 19,2 C 11,8 C 11,3 C 63 % 79 % 71 % 31 % 1026,2 hPa 0,0 mm 0,0 km/h (0 Bft) S 180 8,5 C 12,0 C 0,0 km/h (0 Bft)
30.09.2023 21:35 21,9 C 12,0 C 18,6 C 19,2 C 11,8 C 11,3 C 63 % 78 % 71 % 31 % 1026,2 hPa 0,0 mm 0,0 km/h (0 Bft) S 180 8,3 C 12,0 C 0,0 km/h (0 Bft)
30.09.2023 21:30 21,9 C 12,0 C 18,6 C 19,2 C 11,7 C 11,2 C 63 % 78 % 71 % 31 % 1026,3 hPa 0,0 mm 0,0 km/h (0 Bft) S 180 8,3 C 12,0 C 0,0 km/h (0 Bft)
30.09.2023 21:25 21,9 C 12,1 C 18,6 C 19,2 C 11,8 C 11,2 C 63 % 78 % 71 % 31 % 1026,3 hPa 0,0 mm 0,0 km/h (0 Bft) S 180 8,4 C 12,1 C 0,0 km/h (0 Bft)
30.09.2023 21:20 21,9 C 12,1 C 18,6 C 19,2 C 11,8 C 11,2 C 63 % 78 % 71 % 31 % 1026,3 hPa 0,0 mm 0,0 km/h (0 Bft) S 180 8,4 C 12,1 C 0,0 km/h (0 Bft)
30.09.2023 21:15 21,9 C 12,2 C 18,6 C 19,1 C 11,8 C 11,1 C 63 % 78 % 71 % 31 % 1026,3 hPa 0,0 mm 0,0 km/h (0 Bft) S 180 8,5 C 12,2 C 0,0 km/h (0 Bft)
30.09.2023 21:10 21,9 C 12,3 C 18,6 C 19,2 C 11,9 C 11,1 C 63 % 78 % 71 % 31 % 1026,6 hPa 0,0 mm 0,0 km/h (0 Bft) S 180 8,6 C 12,3 C 0,0 km/h (0 Bft)
30.09.2023 21:05 21,9 C 12,3 C 18,6 C 19,1 C 11,9 C 11,2 C 63 % 77 % 71 % 31 % 1026,6 hPa 0,0 mm 0,0 km/h (0 Bft) S 180 8,4 C 12,3 C 0,0 km/h (0 Bft)
30.09.2023 21:00 21,9 C 12,3 C 18,6 C 19,1 C 11,9 C 11,1 C 63 % 77 % 71 % 31 % 1026,6 hPa 0,0 mm 0,0 km/h (0 Bft) S 180 8,4 C 12,3 C 0,0 km/h (0 Bft)
30.09.2023 20:55 21,9 C 12,5 C 18,6 C 19,1 C 12,0 C 11,0 C 63 % 77 % 71 % 31 % 1026,6 hPa 0,0 mm 0,0 km/h (0 Bft) S 180 8,6 C 12,5 C 0,0 km/h (0 Bft)
30.09.2023 20:50 21,9 C 12,5 C 18,6 C 19,1 C 12,0 C 11,0 C 63 % 77 % 71 % 31 % 1026,5 hPa 0,0 mm 0,0 km/h (0 Bft) S 180 8,6 C 12,5 C 0,0 km/h (0 Bft)
30.09.2023 20:45 21,9 C 12,6 C 18,6 C 19,1 C 12,1 C 11,2 C 63 % 77 % 71 % 31 % 1026,5 hPa 0,0 mm 0,0 km/h (0 Bft) S 180 8,7 C 12,6 C 0,0 km/h (0 Bft)
30.09.2023 20:40 21,9 C 12,7 C 18,6 C 19,1 C 12,2 C 11,2 C 63 % 76 % 71 % 31 % 1026,5 hPa 0,0 mm 0,0 km/h (0 Bft) S-SO 157 8,6 C 12,7 C 0,0 km/h (0 Bft)
30.09.2023 20:35 21,9 C 12,8 C 18,6 C 19,1 C 12,3 C 11,2 C 62 % 76 % 71 % 31 % 1026,5 hPa 0,0 mm 0,0 km/h (0 Bft) S 180 8,7 C 12,8 C 0,0 km/h (0 Bft)
30.09.2023 20:30 21,9 C 13,0 C 18,5 C 19,1 C 12,4 C 11,3 C 62 % 76 % 71 % 31 % 1026,6 hPa 0,0 mm 0,0 km/h (0 Bft) S-SO 157 8,9 C 13,0 C 0,0 km/h (0 Bft)
30.09.2023 20:25 22,0 C 13,0 C 18,6 C 19,1 C 12,5 C 11,5 C 62 % 76 % 71 % 31 % 1026,6 hPa 0,0 mm 0,0 km/h (0 Bft) S-SO 157 8,9 C 13,0 C 0,0 km/h (0 Bft)
30.09.2023 20:21 22,0 C 13,2 C 18,6 C 19,1 C 12,6 C 11,5 C 62 % 76 % 71 % 31 % 1026,6 hPa 0,0 mm 0,0 km/h (0 Bft) S-SO 157 9,1 C 13,2 C 0,0 km/h (0 Bft)
30.09.2023 20:15 22,0 C 13,3 C 18,5 C 19,1 C 12,7 C 11,6 C 62 % 76 % 71 % 31 % 1026,6 hPa 0,0 mm 0,0 km/h (0 Bft) S-SO 157 9,2 C 13,3 C 0,0 km/h (0 Bft)
30.09.2023 20:10 22,0 C 13,5 C 18,6 C 19,1 C 12,9 C 11,7 C 62 % 76 % 71 % 31 % 1026,6 hPa 0,0 mm 0,0 km/h (0 Bft) S-SO 157 9,4 C 13,5 C 0,0 km/h (0 Bft)
30.09.2023 20:05 22,0 C 13,6 C 18,5 C 19,1 C 13,0 C 11,8 C 62 % 76 % 71 % 31 % 1026,6 hPa 0,0 mm 0,0 km/h (0 Bft) S-SO 157 9,4 C 13,6 C 0,0 km/h (0 Bft)
30.09.2023 20:00 22,0 C 13,8 C 18,6 C 19,1 C 13,2 C 12,0 C 62 % 76 % 71 % 31 % 1026,6 hPa 0,0 mm 0,0 km/h (0 Bft) S 180 9,6 C 13,8 C 0,0 km/h (0 Bft)
30.09.2023 19:55 22,0 C 14,0 C 18,5 C 19,1 C 13,3 C 12,0 C 62 % 76 % 71 % 31 % 1026,6 hPa 0,0 mm 0,0 km/h (0 Bft) S-SO 157 9,8 C 14,0 C 0,0 km/h (0 Bft)
30.09.2023 19:50 22,0 C 14,2 C 18,6 C 19,1 C 13,5 C 12,2 C 62 % 74 % 71 % 31 % 1026,5 hPa 0,0 mm 0,0 km/h (0 Bft) S-SO 157 9,6 C 14,2 C 0,0 km/h (0 Bft)
30.09.2023 19:45 22,1 C 14,5 C 18,6 C 19,1 C 13,8 C 12,3 C 62 % 74 % 71 % 31 % 1026,5 hPa 0,0 mm 0,0 km/h (0 Bft) S-SO 157 9,9 C 14,5 C 0,0 km/h (0 Bft)
30.09.2023 19:40 22,1 C 14,7 C 18,6 C 19,1 C 14,0 C 12,6 C 62 % 73 % 71 % 31 % 1026,5 hPa 0,0 mm 0,0 km/h (0 Bft) S-SO 157 9,9 C 14,7 C 0,0 km/h (0 Bft)
30.09.2023 19:35 22,1 C 14,8 C 18,6 C 19,1 C 14,1 C 12,6 C 62 % 73 % 71 % 31 % 1026,5 hPa 0,0 mm 0,0 km/h (0 Bft) S-SO 157 10,0 C 14,8 C 0,0 km/h (0 Bft)
30.09.2023 19:30 22,1 C 15,0 C 18,5 C 19,1 C 14,3 C 12,8 C 62 % 73 % 71 % 31 % 1026,4 hPa 0,0 mm 0,0 km/h (0 Bft) S-SO 157 10,2 C 15,0 C 0,0 km/h (0 Bft)
30.09.2023 19:26 22,2 C 15,3 C 18,6 C 19,1 C 14,5 C 12,9 C 62 % 73 % 71 % 31 % 1026,4 hPa 0,0 mm 0,0 km/h (0 Bft) S-SO 157 10,5 C 15,3 C 0,0 km/h (0 Bft)
30.09.2023 19:20 22,2 C 15,7 C 18,6 C 19,1 C 14,9 C 13,3 C 62 % 73 % 71 % 31 % 1026,4 hPa 0,0 mm 0,0 km/h (0 Bft) S-SO 157 10,9 C 15,7 C 0,0 km/h (0 Bft)
30.09.2023 19:15 22,2 C 15,8 C 18,6 C 19,1 C 15,0 C 13,5 C 62 % 73 % 71 % 31 % 1026,4 hPa 0,0 mm 0,0 km/h (0 Bft) S-SO 157 11,0 C 15,8 C 0,0 km/h (0 Bft)
30.09.2023 19:10 22,2 C 16,1 C 18,6 C 19,1 C 15,4 C 14,0 C 61 % 72 % 71 % 31 % 1026,1 hPa 0,0 mm 0,0 km/h (0 Bft) S-SO 157 11,0 C 16,1 C 0,0 km/h (0 Bft)
30.09.2023 19:05 22,2 C 16,3 C 18,6 C 19,1 C 15,7 C 14,4 C 61 % 71 % 71 % 31 % 1026,1 hPa 0,0 mm 0,0 km/h (0 Bft) S-SO 157 11,0 C 16,3 C 0,0 km/h (0 Bft)
30.09.2023 19:00 22,3 C 16,7 C 18,6 C 19,1 C 16,1 C 14,8 C 61 % 70 % 71 % 31 % 1026,1 hPa 0,0 mm 0,0 km/h (0 Bft) S-SO 157 11,2 C 16,7 C 0,0 km/h (0 Bft)
30.09.2023 18:55 22,3 C 16,9 C 18,6 C 19,1 C 16,3 C 15,1 C 61 % 70 % 71 % 31 % 1026,1 hPa 0,0 mm 0,0 km/h (0 Bft) S-SO 157 11,4 C 16,9 C 0,0 km/h (0 Bft)
30.09.2023 18:50 22,2 C 17,2 C 18,6 C 19,1 C 16,6 C 15,5 C 61 % 70 % 71 % 31 % 1026,5 hPa 0,0 mm 0,0 km/h (0 Bft) S-SO 157 11,7 C 17,2 C 0,0 km/h (0 Bft)
30.09.2023 18:45 22,2 C 17,3 C 18,6 C 19,1 C 16,8 C 15,8 C 61 % 69 % 71 % 31 % 1026,5 hPa 0,0 mm 0,0 km/h (0 Bft) S-SO 157 11,6 C 17,3 C 0,0 km/h (0 Bft)
30.09.2023 18:40 22,4 C 17,5 C 18,6 C 19,1 C 17,1 C 16,2 C 61 % 70 % 71 % 31 % 1026,5 hPa 0,0 mm 0,0 km/h (0 Bft) S-SO 157 12,0 C 17,5 C 0,0 km/h (0 Bft)
30.09.2023 18:35 22,4 C 17,5 C 18,6 C 19,1 C 17,2 C 16,5 C 61 % 70 % 71 % 31 % 1026,5 hPa 0,0 mm 0,0 km/h (0 Bft) S 180 12,0 C 17,5 C 0,0 km/h (0 Bft)
30.09.2023 18:30 22,4 C 17,3 C 18,6 C 19,1 C 17,1 C 16,8 C 61 % 70 % 71 % 31 % 1026,4 hPa 0,0 mm 0,0 km/h (0 Bft) S 180 11,8 C 17,3 C 0,0 km/h (0 Bft)
30.09.2023 18:25 22,4 C 17,2 C 18,6 C 19,1 C 17,1 C 17,0 C 61 % 70 % 71 % 31 % 1026,4 hPa 0,0 mm 0,0 km/h (0 Bft) S 180 11,7 C 17,2 C 0,0 km/h (0 Bft)
30.09.2023 18:20 22,4 C 17,1 C 18,6 C 19,1 C 17,2 C 17,2 C 61 % 70 % 71 % 31 % 1026,4 hPa 0,0 mm 0,0 km/h (0 Bft) S 180 11,6 C 17,1 C 0,0 km/h (0 Bft)
30.09.2023 18:15 22,4 C 17,2 C 18,6 C 19,1 C 17,2 C 17,2 C 61 % 69 % 71 % 31 % 1026,4 hPa 0,0 mm 0,0 km/h (0 Bft) S 180 11,5 C 17,2 C 0,0 km/h (0 Bft)
30.09.2023 18:10 22,4 C 17,3 C 18,6 C 19,1 C 17,5 C 17,5 C 61 % 68 % 71 % 31 % 1026,1 hPa 0,0 mm 0,0 km/h (0 Bft) S 180 11,3 C 17,3 C 0,0 km/h (0 Bft)
30.09.2023 18:05 22,5 C 17,5 C 18,6 C 19,1 C 17,6 C 17,6 C 61 % 65 % 71 % 31 % 1026,1 hPa 0,0 mm 0,0 km/h (0 Bft) S 180 10,8 C 17,5 C 0,0 km/h (0 Bft)
30.09.2023 18:00 22,5 C 17,6 C 18,6 C 19,1 C 17,8 C 17,8 C 60 % 62 % 71 % 31 % 1026,1 hPa 0,0 mm 0,0 km/h (0 Bft) W-SW 247 10,2 C 17,6 C 0,0 km/h (0 Bft)
30.09.2023 17:55 22,5 C 17,8 C 18,6 C 19,1 C 17,9 C 17,9 C 60 % 62 % 71 % 31 % 1026,1 hPa 0,0 mm 0,0 km/h (0 Bft) W-SW 247 10,4 C 17,8 C 0,0 km/h (0 Bft)
30.09.2023 17:50 22,5 C 17,9 C 18,6 C 19,1 C 18,1 C 18,1 C 61 % 63 % 71 % 31 % 1026,9 hPa 0,0 mm 0,2 km/h (0 Bft) S 180 10,8 C 17,9 C 0,0 km/h (0 Bft)
30.09.2023 17:45 22,6 C 18,0 C 18,6 C 19,1 C 18,2 C 18,2 C 60 % 63 % 71 % 31 % 1026,9 hPa 0,0 mm 0,5 km/h (0 Bft) W 270 10,8 C 18,0 C 0,0 km/h (0 Bft)
30.09.2023 17:40 22,5 C 18,1 C 18,6 C 19,1 C 18,4 C 18,4 C 60 % 61 % 71 % 31 % 1026,9 hPa 0,0 mm 0,2 km/h (0 Bft) W-SW 247 10,5 C 18,1 C 1,9 km/h (1 Bft)
30.09.2023 17:35 22,6 C 18,1 C 18,6 C 19,1 C 18,5 C 18,5 C 60 % 62 % 71 % 31 % 1026,9 hPa 0,0 mm 0,0 km/h (0 Bft) W 270 10,7 C 18,1 C 0,0 km/h (0 Bft)
30.09.2023 17:30 22,6 C 18,2 C 18,6 C 19,1 C 18,6 C 18,6 C 60 % 61 % 71 % 31 % 1026,2 hPa 0,0 mm 0,5 km/h (0 Bft) W-SW 247 10,6 C 18,2 C 0,0 km/h (0 Bft)
30.09.2023 17:25 22,6 C 18,3 C 18,6 C 19,1 C 18,6 C 18,6 C 60 % 59 % 71 % 31 % 1026,2 hPa 0,0 mm 0,5 km/h (0 Bft) W 270 10,1 C 18,3 C 0,0 km/h (0 Bft)
30.09.2023 17:20 22,6 C 18,4 C 18,6 C 19,1 C 18,9 C 18,9 C 60 % 59 % 71 % 31 % 1026,2 hPa 0,0 mm 0,5 km/h (0 Bft) NW 315 10,2 C 18,4 C 0,0 km/h (0 Bft)
30.09.2023 17:15 22,6 C 18,4 C 18,7 C 19,1 C 19,1 C 19,1 C 60 % 57 % 71 % 31 % 1026,2 hPa 0,0 mm 0,7 km/h (0 Bft) NW 315 9,7 C 18,4 C 0,0 km/h (0 Bft)
30.09.2023 17:10 22,6 C 18,5 C 18,7 C 19,1 C 19,5 C 19,5 C 60 % 57 % 71 % 31 % 1026,4 hPa 0,0 mm 1,1 km/h (1 Bft) W-SW 247 9,8 C 18,5 C 2,3 km/h (1 Bft)
30.09.2023 17:05 22,6 C 18,7 C 18,7 C 19,1 C 19,9 C 19,9 C 60 % 60 % 71 % 31 % 1026,4 hPa 0,0 mm 1,8 km/h (1 Bft) SW 225 10,8 C 18,7 C 0,0 km/h (0 Bft)
30.09.2023 17:00 22,6 C 18,8 C 18,6 C 19,1 C 20,3 C 20,3 C 60 % 57 % 71 % 31 % 1026,4 hPa 0,0 mm 2,0 km/h (1 Bft) S-SW 202 10,1 C 18,8 C 2,3 km/h (1 Bft)
30.09.2023 16:55 22,6 C 18,9 C 18,7 C 19,1 C 20,7 C 20,7 C 60 % 59 % 71 % 31 % 1026,4 hPa 0,0 mm 1,4 km/h (1 Bft) SO 135 10,7 C 18,9 C 2,4 km/h (1 Bft)
30.09.2023 16:50 22,6 C 19,1 C 18,7 C 19,1 C 21,3 C 21,3 C 60 % 58 % 71 % 31 % 1026,7 hPa 0,0 mm 1,8 km/h (1 Bft) W-SW 247 10,6 C 19,1 C 0,0 km/h (0 Bft)
30.09.2023 16:45 22,6 C 19,1 C 18,7 C 19,1 C 21,7 C 21,7 C 60 % 58 % 71 % 31 % 1026,7 hPa 0,0 mm 3,4 km/h (1 Bft) W-SW 247 10,6 C 19,1 C 0,0 km/h (0 Bft)
30.09.2023 16:40 22,6 C 19,3 C 18,6 C 19,1 C 22,0 C 22,0 C 60 % 60 % 71 % 31 % 1026,7 hPa 0,0 mm 2,7 km/h (1 Bft) NW 315 11,3 C 19,3 C 3,1 km/h (1 Bft)
30.09.2023 16:35 22,6 C 19,5 C 18,6 C 19,1 C 21,8 C 21,8 C 60 % 57 % 71 % 31 % 1026,7 hPa 0,0 mm 1,4 km/h (1 Bft) W-NW 292 10,8 C 19,5 C 4,0 km/h (1 Bft)
30.09.2023 16:30 22,6 C 19,4 C 18,7 C 19,1 C 21,3 C 21,3 C 60 % 56 % 71 % 31 % 1026,7 hPa 0,0 mm 0,9 km/h (0 Bft) S 180 10,4 C 19,4 C 2,3 km/h (1 Bft)
30.09.2023 16:25 22,5 C 19,3 C 18,7 C 19,1 C 20,9 C 20,9 C 60 % 58 % 71 % 31 % 1026,7 hPa 0,0 mm 0,5 km/h (0 Bft) S-SO 157 10,8 C 19,3 C 0,0 km/h (0 Bft)
30.09.2023 16:20 22,6 C 19,2 C 18,7 C 19,1 C 20,6 C 20,6 C 61 % 57 % 71 % 31 % 1026,7 hPa 0,0 mm 0,7 km/h (0 Bft) NW 315 10,5 C 19,2 C 0,0 km/h (0 Bft)
30.09.2023 16:15 22,6 C 19,3 C 18,7 C 19,1 C 20,7 C 20,7 C 61 % 57 % 71 % 31 % 1026,7 hPa 0,0 mm 1,1 km/h (1 Bft) W 270 10,6 C 19,3 C 0,0 km/h (0 Bft)
30.09.2023 16:10 22,6 C 19,4 C 18,7 C 19,1 C 20,7 C 20,7 C 61 % 55 % 71 % 31 % 1026,9 hPa 0,0 mm 1,4 km/h (1 Bft) N 360 10,1 C 19,4 C 2,1 km/h (1 Bft)
30.09.2023 16:05 22,5 C 19,4 C 18,7 C 19,1 C 20,7 C 20,7 C 61 % 57 % 71 % 31 % 1026,9 hPa 0,0 mm 2,0 km/h (1 Bft) SW 225 10,7 C 19,4 C 2,3 km/h (1 Bft)
30.09.2023 16:00 22,5 C 19,2 C 18,7 C 19,1 C 20,5 C 20,5 C 61 % 56 % 71 % 31 % 1026,9 hPa 0,0 mm 2,5 km/h (1 Bft) W 270 10,2 C 19,2 C 2,1 km/h (1 Bft)
30.09.2023 15:55 22,5 C 19,2 C 18,7 C 19,1 C 20,7 C 20,7 C 61 % 58 % 71 % 31 % 1026,9 hPa 0,0 mm 2,3 km/h (1 Bft) W-SW 247 10,7 C 19,2 C 4,5 km/h (1 Bft)
30.09.2023 15:50 22,5 C 19,3 C 18,7 C 19,1 C 21,0 C 21,0 C 61 % 58 % 71 % 31 % 1027,0 hPa 0,0 mm 1,4 km/h (1 Bft) W 270 10,8 C 19,3 C 4,5 km/h (1 Bft)
30.09.2023 15:45 22,4 C 19,4 C 18,7 C 19,1 C 21,1 C 21,1 C 62 % 60 % 71 % 31 % 1027,0 hPa 0,0 mm 1,4 km/h (1 Bft) N-NW 337 11,4 C 19,4 C 0,0 km/h (0 Bft)
30.09.2023 15:40 22,4 C 19,4 C 18,7 C 19,2 C 21,6 C 21,6 C 62 % 53 % 71 % 31 % 1027,0 hPa 0,0 mm 3,0 km/h (1 Bft) SW 225 9,6 C 19,4 C 2,9 km/h (1 Bft)
30.09.2023 15:35 22,4 C 19,5 C 18,7 C 19,2 C 22,2 C 22,2 C 62 % 54 % 71 % 31 % 1027,0 hPa 0,0 mm 2,5 km/h (1 Bft) W-SW 247 9,9 C 19,5 C 2,3 km/h (1 Bft)
30.09.2023 15:30 22,4 C 19,9 C 18,7 C 19,1 C 23,1 C 23,1 C 62 % 54 % 71 % 31 % 1027,2 hPa 0,0 mm 3,6 km/h (1 Bft) SW 225 10,3 C 19,9 C 0,0 km/h (0 Bft)
30.09.2023 15:25 22,4 C 19,9 C 18,7 C 19,1 C 23,5 C 23,5 C 62 % 54 % 71 % 31 % 1027,2 hPa 0,0 mm 4,3 km/h (1 Bft) W 270 10,3 C 19,9 C 0,0 km/h (0 Bft)
30.09.2023 15:20 22,2 C 20,1 C 18,7 C 19,2 C 23,7 C 23,7 C 62 % 54 % 71 % 31 % 1027,2 hPa 0,0 mm 3,2 km/h (1 Bft) NW 315 10,5 C 20,1 C 3,9 km/h (1 Bft)
30.09.2023 15:15 22,3 C 20,0 C 18,7 C 19,2 C 23,6 C 23,6 C 62 % 55 % 71 % 31 % 1027,2 hPa 0,0 mm 3,6 km/h (1 Bft) SW 225 10,7 C 20,0 C 1,9 km/h (1 Bft)
30.09.2023 15:10 22,2 C 19,9 C 18,7 C 19,2 C 23,9 C 23,9 C 62 % 56 % 71 % 31 % 1027,4 hPa 0,0 mm 3,2 km/h (1 Bft) NW 315 10,9 C 19,9 C 3,2 km/h (1 Bft)
30.09.2023 15:05 22,3 C 19,9 C 18,7 C 19,2 C 24,0 C 24,0 C 62 % 56 % 71 % 31 % 1027,4 hPa 0,0 mm 2,7 km/h (1 Bft) NW 315 10,9 C 19,9 C 4,8 km/h (1 Bft)
30.09.2023 15:00 22,2 C 20,0 C 18,7 C 19,2 C 23,8 C 23,8 C 62 % 54 % 71 % 31 % 1027,4 hPa 0,0 mm 3,4 km/h (1 Bft) W 270 10,4 C 20,0 C 3,7 km/h (1 Bft)
30.09.2023 14:55 22,2 C 20,1 C 18,7 C 19,2 C 23,7 C 23,7 C 62 % 56 % 71 % 31 % 1027,4 hPa 0,0 mm 3,4 km/h (1 Bft) W-SW 247 11,0 C 20,1 C 3,7 km/h (1 Bft)
30.09.2023 14:50 22,2 C 20,0 C 18,7 C 19,2 C 23,6 C 23,6 C 62 % 58 % 71 % 31 % 1027,3 hPa 0,0 mm 3,2 km/h (1 Bft) S-SW 202 11,5 C 20,0 C 3,5 km/h (1 Bft)
30.09.2023 14:45 22,2 C 19,7 C 18,7 C 19,2 C 23,2 C 23,2 C 62 % 58 % 71 % 31 % 1027,3 hPa 0,0 mm 4,3 km/h (1 Bft) W-NW 292 11,2 C 19,7 C 2,4 km/h (1 Bft)
30.09.2023 14:40 22,2 C 19,9 C 18,7 C 19,2 C 23,1 C 23,1 C 62 % 54 % 71 % 31 % 1027,3 hPa 0,0 mm 3,9 km/h (1 Bft) S 180 10,3 C 19,9 C 3,4 km/h (1 Bft)
30.09.2023 14:35 22,2 C 20,0 C 18,7 C 19,2 C 23,2 C 23,2 C 62 % 56 % 71 % 31 % 1027,3 hPa 0,0 mm 5,0 km/h (1 Bft) W-SW 247 11,0 C 20,0 C 4,5 km/h (1 Bft)
30.09.2023 14:30 22,1 C 19,7 C 18,7 C 19,2 C 22,9 C 22,9 C 62 % 56 % 71 % 31 % 1026,9 hPa 0,0 mm 5,7 km/h (1 Bft) W-SW 247 10,7 C 19,7 C 5,1 km/h (1 Bft)
30.09.2023 14:25 22,1 C 20,0 C 18,7 C 19,2 C 23,5 C 23,5 C 62 % 55 % 71 % 31 % 1026,9 hPa 0,0 mm 5,0 km/h (1 Bft) W-SW 247 10,7 C 20,0 C 5,3 km/h (1 Bft)
30.09.2023 14:20 22,1 C 20,0 C 18,7 C 19,2 C 24,0 C 24,0 C 62 % 52 % 71 % 31 % 1026,9 hPa 0,0 mm 3,0 km/h (1 Bft) W-SW 247 9,8 C 20,0 C 3,4 km/h (1 Bft)
30.09.2023 14:15 22,0 C 20,1 C 18,7 C 19,2 C 23,7 C 23,7 C 62 % 56 % 71 % 31 % 1026,9 hPa 0,0 mm 3,4 km/h (1 Bft) S 180 11,0 C 20,1 C 3,2 km/h (1 Bft)
30.09.2023 14:10 22,0 C 19,7 C 18,7 C 19,2 C 23,2 C 23,2 C 62 % 58 % 71 % 31 % 1027,4 hPa 0,0 mm 5,2 km/h (1 Bft) S 180 11,2 C 19,7 C 0,0 km/h (0 Bft)
30.09.2023 14:05 22,0 C 19,8 C 18,7 C 19,2 C 23,6 C 23,6 C 62 % 58 % 71 % 31 % 1027,4 hPa 0,0 mm 4,6 km/h (1 Bft) W-SW 247 11,3 C 19,8 C 2,3 km/h (1 Bft)
30.09.2023 14:00 22,0 C 20,1 C 18,7 C 19,2 C 24,2 C 24,2 C 63 % 59 % 71 % 31 % 1027,4 hPa 0,0 mm 4,6 km/h (1 Bft) S-SO 157 11,8 C 20,1 C 3,2 km/h (1 Bft)
30.09.2023 13:55 22,0 C 20,0 C 18,7 C 19,2 C 24,2 C 24,2 C 63 % 59 % 71 % 31 % 1027,4 hPa 0,0 mm 5,0 km/h (1 Bft) O-SO 112 11,7 C 20,0 C 9,5 km/h (2 Bft)
30.09.2023 13:50 22,0 C 20,2 C 18,7 C 19,2 C 24,7 C 24,7 C 63 % 59 % 71 % 31 % 1027,6 hPa 0,0 mm 3,9 km/h (1 Bft) S 180 11,9 C 20,2 C 7,2 km/h (2 Bft)
30.09.2023 13:45 22,0 C 20,2 C 18,7 C 19,2 C 24,4 C 24,4 C 63 % 60 % 71 % 31 % 1027,6 hPa 0,0 mm 3,2 km/h (1 Bft) NW 315 12,2 C 20,2 C 4,2 km/h (1 Bft)
30.09.2023 13:40 22,0 C 19,9 C 18,7 C 19,2 C 23,0 C 23,0 C 63 % 62 % 71 % 31 % 1027,6 hPa 0,0 mm 2,7 km/h (1 Bft) S 180 12,4 C 19,9 C 3,1 km/h (1 Bft)
30.09.2023 13:35 21,9 C 19,3 C 18,7 C 19,2 C 21,9 C 21,9 C 63 % 65 % 71 % 31 % 1027,6 hPa 0,0 mm 4,1 km/h (1 Bft) NW 315 12,6 C 19,3 C 3,2 km/h (1 Bft)
30.09.2023 13:30 21,9 C 18,7 C 18,7 C 19,2 C 20,9 C 20,9 C 63 % 65 % 71 % 31 % 1028,0 hPa 0,0 mm 4,1 km/h (1 Bft) S-SW 202 12,0 C 18,7 C 4,2 km/h (1 Bft)
30.09.2023 13:25 21,9 C 18,6 C 18,7 C 19,2 C 20,3 C 20,3 C 63 % 66 % 71 % 31 % 1028,0 hPa 0,0 mm 2,7 km/h (1 Bft) W 270 12,1 C 18,6 C 5,5 km/h (1 Bft)
30.09.2023 13:20 21,8 C 17,8 C 18,7 C 19,2 C 19,3 C 19,3 C 63 % 66 % 71 % 31 % 1028,0 hPa 0,0 mm 2,3 km/h (1 Bft) NW 315 11,4 C 17,8 C 2,4 km/h (1 Bft)
30.09.2023 13:15 21,8 C 17,9 C 18,7 C 19,2 C 19,7 C 19,7 C 63 % 66 % 71 % 31 % 1028,0 hPa 0,0 mm 2,3 km/h (1 Bft) N 360 11,5 C 17,9 C 0,0 km/h (0 Bft)
30.09.2023 13:10 21,8 C 18,4 C 18,8 C 19,3 C 20,9 C 20,9 C 63 % 67 % 71 % 31 % 1028,1 hPa 0,0 mm 2,5 km/h (1 Bft) S 180 12,2 C 18,4 C 2,9 km/h (1 Bft)
30.09.2023 13:05 21,8 C 18,6 C 18,8 C 19,3 C 21,3 C 21,3 C 63 % 67 % 71 % 31 % 1028,1 hPa 0,0 mm 3,6 km/h (1 Bft) W-SW 247 12,3 C 18,6 C 2,7 km/h (1 Bft)
30.09.2023 13:00 21,7 C 18,6 C 18,8 C 19,3 C 21,6 C 21,6 C 63 % 65 % 71 % 31 % 1028,1 hPa 0,0 mm 4,6 km/h (1 Bft) NW 315 11,9 C 18,6 C 3,1 km/h (1 Bft)
30.09.2023 12:55 21,7 C 19,3 C 18,8 C 19,3 C 22,8 C 22,8 C 63 % 65 % 71 % 31 % 1028,1 hPa 0,0 mm 4,6 km/h (1 Bft) W 270 12,6 C 19,3 C 4,2 km/h (1 Bft)
30.09.2023 12:50 21,7 C 19,1 C 18,8 C 19,3 C 22,4 C 22,4 C 63 % 63 % 71 % 31 % 1028,0 hPa 0,0 mm 4,1 km/h (1 Bft) SW 225 11,9 C 19,1 C 5,6 km/h (1 Bft)
30.09.2023 12:45 21,6 C 18,8 C 18,8 C 19,3 C 22,1 C 22,1 C 63 % 65 % 71 % 31 % 1028,0 hPa 0,0 mm 4,1 km/h (1 Bft) S-SW 202 12,1 C 18,8 C 3,7 km/h (1 Bft)
30.09.2023 12:40 21,6 C 18,8 C 18,8 C 19,3 C 23,1 C 23,1 C 63 % 66 % 71 % 31 % 1028,0 hPa 0,0 mm 4,3 km/h (1 Bft) W-SW 247 12,3 C 18,8 C 5,5 km/h (1 Bft)
30.09.2023 12:35 21,5 C 19,5 C 18,8 C 19,3 C 24,2 C 24,2 C 63 % 69 % 71 % 31 % 1028,0 hPa 0,0 mm 4,3 km/h (1 Bft) N 360 13,7 C 19,5 C 8,4 km/h (2 Bft)
30.09.2023 12:30 21,4 C 19,2 C 18,8 C 19,3 C 23,8 C 23,8 C 63 % 66 % 71 % 31 % 1027,9 hPa 0,0 mm 4,3 km/h (1 Bft) SW 225 12,7 C 19,2 C 8,0 km/h (2 Bft)
30.09.2023 12:25 21,5 C 19,1 C 18,8 C 19,3 C 23,6 C 23,6 C 63 % 67 % 71 % 31 % 1027,9 hPa 0,0 mm 3,9 km/h (1 Bft) SW 225 12,8 C 19,1 C 3,1 km/h (1 Bft)
30.09.2023 12:20 21,4 C 18,9 C 18,8 C 19,3 C 23,3 C 23,3 C 63 % 69 % 71 % 31 % 1027,9 hPa 0,0 mm 4,8 km/h (1 Bft) S 180 13,1 C 18,9 C 3,2 km/h (1 Bft)
30.09.2023 12:15 21,4 C 18,7 C 18,8 C 19,3 C 22,9 C 22,9 C 63 % 70 % 71 % 31 % 1027,9 hPa 0,0 mm 5,0 km/h (1 Bft) N-NO 22 13,1 C 18,7 C 4,2 km/h (1 Bft)
30.09.2023 12:10 21,4 C 18,7 C 18,8 C 19,3 C 22,4 C 22,4 C 63 % 72 % 71 % 31 % 1027,6 hPa 0,0 mm 4,1 km/h (1 Bft) SW 225 13,5 C 18,7 C 0,0 km/h (0 Bft)
30.09.2023 12:05 21,4 C 18,7 C 18,8 C 19,3 C 22,4 C 22,4 C 63 % 72 % 71 % 31 % 1027,6 hPa 0,0 mm 4,1 km/h (1 Bft) SW 225 13,5 C 18,7 C 0,0 km/h (0 Bft)
30.09.2023 12:00 21,4 C 18,3 C 18,8 C 19,3 C 22,3 C 22,3 C 63 % 70 % 71 % 31 % 1027,6 hPa 0,0 mm 4,8 km/h (1 Bft) W 270 12,7 C 18,3 C 4,0 km/h (1 Bft)
_ Min-Zeit 08:20 03:05 19:30 15:25 01:45 01:40 07:55 14:20 12:00 12:00 05:35 - 17:35 - - 01:45 03:05 12:05
Minimum _ 20,2 C 9,4 C 18,5 C 19,1 C 9,2 C 8,6 C 57 % 52 % 71 % 31 % 1023,9 hPa - 0,0 km/h (0 Bft) - - 6,4 C 9,4 C 0,0 km/h (0 Bft)
_ Max-Zeit 16:10 11:20 03:15 02:15 13:50 13:50 12:00 03:25 12:00 11:05 12:55 12:00 10:40 - - 11:20 11:20 11:05
Maximum _ 22,6 C 21,3 C 18,9 C 19,5 C 24,7 C 24,7 C 63 % 90 % 71 % 33 % 1028,1 hPa 0,0 mm 5,9 km/h
W-SW (2 Bft)
- - 14,4 C 21,3 C 11,9 km/h
SO (2 Bft)
Durchschnitt _ 21,5 C 14,3 C 18,8 C 19,3 C 15,3 C 14,9 C 62 % 75 % 71 % 31 % 1025,9 hPa #0,0 mm 1,3 km/h (1 Bft) W-SW - 9,7 C 14,3 C 1,3 km/h (1 Bft)